Time;durP1;ratioP1;P1;durP2;ratioP2;P2;SDS_P1;SDS_P2;PMS_P1;PMS_P2;Temp;Humidity;BMP_temperature;BMP_pressure;BME280_temperature;BME280_humidity;BME280_pressure;Samples;Min_cycle;Max_cycle;Signal;HPM_P1;HPM_P2
2024/03/26 00:00:40;;;;;;;5.05;3.08;;;;;;;9.64;49.52;99783.75;4959346;28;114511;-65
2024/03/26 00:03:07;;;;;;;10.25;3.53;;;;;;;9.63;49.47;99782.06;4960864;28;115619;-65
2024/03/26 00:05:35;;;;;;;8.40;3.17;;;;;;;9.62;49.58;99780.34;4948636;28;124013;-65
2024/03/26 00:08:02;;;;;;;10.65;3.47;;;;;;;9.60;49.39;99776.97;4963528;28;124013;-65
2024/03/26 00:10:28;;;;;;;7.20;2.78;;;;;;;9.59;49.38;99781.41;4958588;28;115550;-66
2024/03/26 00:12:54;;;;;;;9.90;3.03;;;;;;;9.58;49.41;99768.28;4954531;28;115304;-65
2024/03/26 00:15:21;;;;;;;8.35;3.38;;;;;;;9.54;49.51;99763.16;4954819;28;124139;-65
2024/03/26 00:17:47;;;;;;;9.30;2.80;;;;;;;9.52;49.72;99762.38;4961300;28;124813;-65
2024/03/26 00:20:13;;;;;;;9.95;3.22;;;;;;;9.50;49.50;99744.94;4970451;28;114178;-65
2024/03/26 00:22:39;;;;;;;11.07;3.20;;;;;;;9.49;49.62;99754.66;4948332;28;112923;-65
2024/03/26 00:25:06;;;;;;;8.75;3.30;;;;;;;9.46;49.68;99751.34;4952681;28;124419;-65
2024/03/26 00:27:32;;;;;;;5.93;3.05;;;;;;;9.44;49.79;99740.84;4951724;28;124112;-65
2024/03/26 00:29:58;;;;;;;10.52;3.20;;;;;;;9.43;49.67;99739.13;4953654;28;114155;-64
2024/03/26 00:32:25;;;;;;;7.78;3.00;;;;;;;9.42;49.88;99732.16;4967218;28;114117;-65
2024/03/26 00:34:51;;;;;;;8.73;3.20;;;;;;;9.41;49.65;99730.44;4961341;28;124280;-65
2024/03/26 00:37:17;;;;;;;7.15;3.17;;;;;;;9.40;50.15;99723.47;4961018;28;124177;-64
2024/03/26 00:39:43;;;;;;;8.20;3.13;;;;;;;9.39;49.82;99716.47;4954612;28;114414;-64
2024/03/26 00:42:10;;;;;;;9.13;2.97;;;;;;;9.38;50.04;99704.22;4951188;28;113914;-65
2024/03/26 00:44:38;;;;;;;9.95;3.20;;;;;;;9.36;50.02;99706.06;4943181;28;123919;-64
2024/03/26 00:47:04;;;;;;;8.50;3.03;;;;;;;9.35;49.85;99705.22;4955189;28;123733;-65
2024/03/26 00:49:31;;;;;;;6.63;3.03;;;;;;;9.35;49.93;99699.09;4965222;28;114735;-64
2024/03/26 00:51:58;;;;;;;14.52;3.10;;;;;;;9.35;49.75;99694.66;4972672;28;113879;-65
2024/03/26 00:54:24;;;;;;;9.43;3.17;;;;;;;9.34;49.84;99692.97;4956082;28;124259;-64
2024/03/26 00:56:50;;;;;;;8.30;2.72;;;;;;;9.33;49.77;99685.13;4961255;28;123744;-64
2024/03/26 00:59:17;;;;;;;8.77;3.17;;;;;;;9.33;50.01;99690.41;4964788;28;115523;-71
2024/03/26 01:01:43;;;;;;;8.70;2.92;;;;;;;9.32;49.68;99680.78;4957029;28;115211;-64
2024/03/26 01:04:09;;;;;;;8.40;3.03;;;;;;;9.32;50.04;99683.41;4967235;28;124096;-64
2024/03/26 01:06:37;;;;;;;12.07;3.15;;;;;;;9.33;49.82;99679.84;4966447;28;124021;-64
2024/03/26 01:09:03;;;;;;;5.88;3.03;;;;;;;9.32;50.04;99680.78;4952683;28;114179;-64
2024/03/26 01:11:29;;;;;;;8.80;3.20;;;;;;;9.32;49.98;99672.84;4958827;28;113607;-64
2024/03/26 01:13:57;;;;;;;5.80;2.70;;;;;;;9.34;49.99;99668.31;4970662;28;124089;-64
2024/03/26 01:16:23;;;;;;;6.13;2.90;;;;;;;9.35;49.69;99670.03;4960134;28;123740;-64
2024/03/26 01:18:50;;;;;;;11.52;2.75;;;;;;;9.35;49.91;99664.75;4963777;28;115472;-64
2024/03/26 01:21:16;;;;;;;6.47;2.70;;;;;;;9.35;49.75;99662.09;4962151;28;114050;-64
2024/03/26 01:23:42;;;;;;;7.55;3.10;;;;;;;9.34;49.87;99655.09;4961776;28;124399;-64
2024/03/26 01:26:09;;;;;;;10.02;2.88;;;;;;;9.34;49.85;99655.09;4952998;28;123174;-64
2024/03/26 01:28:36;;;;;;;9.95;2.95;;;;;;;9.34;49.63;99652.47;4955944;28;114632;-64
2024/03/26 01:31:02;;;;;;;10.30;3.10;;;;;;;9.34;49.65;99649.81;4953313;28;114148;-64
2024/03/26 01:33:28;;;;;;;7.75;2.90;;;;;;;9.34;49.85;99644.53;4956298;28;123244;-64
2024/03/26 01:35:55;;;;;;;8.52;2.60;;;;;;;9.34;49.89;99633.97;4945082;28;122794;-64
2024/03/26 01:38:21;;;;;;;11.20;2.90;;;;;;;9.34;49.86;99633.97;4939213;28;114223;-68
2024/03/26 01:40:48;;;;;;;6.72;2.85;;;;;;;9.33;49.59;99632.28;4950744;28;113354;-65
2024/03/26 01:43:14;;;;;;;13.25;3.08;;;;;;;9.31;49.65;99624.44;4938289;28;123093;-65
2024/03/26 01:45:40;;;;;;;9.93;2.92;;;;;;;9.30;49.81;99621.88;4961054;28;123909;-65
2024/03/26 01:48:08;;;;;;;9.32;2.60;;;;;;;9.29;49.50;99625.50;4945973;28;115201;-64
2024/03/26 01:50:34;;;;;;;8.18;2.83;;;;;;;9.29;49.53;99622.84;4966357;28;114818;-65
2024/03/26 01:53:04;;;;;;;8.10;2.83;;;;;;;9.27;49.64;99616.81;4957386;28;124506;-64
2024/03/26 01:55:33;;;;;;;9.90;2.90;;;;;;;9.26;49.54;99607.16;4957747;28;123622;-64
2024/03/26 01:58:00;;;;;;;8.25;3.00;;;;;;;9.26;49.44;99604.53;4947775;28;113245;-64
2024/03/26 02:00:29;;;;;;;7.38;2.88;;;;;;;9.26;49.68;99609.81;4946186;28;112955;-65
2024/03/26 02:02:56;;;;;;;8.00;3.15;;;;;;;9.25;49.55;99602.81;4962320;28;124070;-65
2024/03/26 02:05:23;;;;;;;8.68;2.88;;;;;;;9.25;49.47;99602.81;4970868;28;124205;-65
2024/03/26 02:07:49;;;;;;;8.40;3.25;;;;;;;9.25;49.37;99600.16;4970898;28;115169;-64
2024/03/26 02:10:16;;;;;;;7.75;2.83;;;;;;;9.24;49.57;99595.84;4958983;28;113864;-65
2024/03/26 02:12:43;;;;;;;8.65;3.30;;;;;;;9.23;49.74;99599.41;4966872;28;125297;-65
2024/03/26 02:15:09;;;;;;;8.93;3.72;;;;;;;9.23;49.51;99591.47;4945660;28;122831;-65
2024/03/26 02:17:35;;;;;;;12.43;3.28;;;;;;;9.23;49.49;99594.13;4958387;28;114410;-65
2024/03/26 02:20:04;;;;;;;8.25;3.38;;;;;;;9.24;49.55;99587.91;4962299;28;113825;-65
2024/03/26 02:22:30;;;;;;;8.95;3.10;;;;;;;9.25;49.55;99586.97;4971192;28;124106;-64
2024/03/26 02:24:56;;;;;;;9.90;3.38;;;;;;;9.26;49.75;99586.03;4967403;28;124170;-65
2024/03/26 02:27:23;;;;;;;9.32;2.78;;;;;;;9.26;49.72;99567.53;4962796;28;114235;-64
2024/03/26 02:29:49;;;;;;;8.18;3.13;;;;;;;9.26;49.74;99573.66;4956955;28;114263;-65
2024/03/26 02:32:16;;;;;;;10.23;2.95;;;;;;;9.27;49.53;99563.97;4963331;28;123978;-64
2024/03/26 02:34:42;;;;;;;8.60;3.03;;;;;;;9.27;49.71;99574.53;4959777;28;124220;-64
2024/03/26 02:37:08;;;;;;;10.65;3.30;;;;;;;9.26;49.70;99556.97;4956769;28;114900;-64
2024/03/26 02:39:34;;;;;;;8.93;3.38;;;;;;;9.27;49.41;99558.69;4951497;28;114839;-65
2024/03/26 02:42:02;;;;;;;8.63;3.13;;;;;;;9.25;49.64;99560.53;4962133;28;123313;-66
2024/03/26 02:44:28;;;;;;;8.50;2.88;;;;;;;9.25;49.75;99555.25;4961704;28;124401;-64
2024/03/26 02:46:54;;;;;;;9.32;3.03;;;;;;;9.24;49.41;99554.41;4963550;28;114523;-64
2024/03/26 02:49:20;;;;;;;8.90;2.72;;;;;;;9.23;49.62;99554.50;4941716;28;113995;-65
2024/03/26 02:51:46;;;;;;;8.15;3.05;;;;;;;9.22;49.65;99550.19;4968312;28;124804;-64
2024/03/26 02:54:13;;;;;;;9.27;3.15;;;;;;;9.21;49.68;99543.19;4964711;28;123831;-64
2024/03/26 02:56:40;;;;;;;10.55;2.70;;;;;;;9.19;49.55;99534.50;4957498;28;114304;-64
2024/03/26 02:59:06;;;;;;;7.40;2.70;;;;;;;9.18;49.83;99538.09;4952548;28;114707;-64
2024/03/26 03:01:32;;;;;;;8.57;2.83;;;;;;;9.15;49.85;99531.19;4970648;28;124355;-65
2024/03/26 03:03:58;;;;;;;7.00;2.92;;;;;;;9.13;49.74;99531.28;4963350;28;124012;-65
2024/03/26 03:06:25;;;;;;;6.05;2.65;;;;;;;9.12;49.67;99524.31;4947207;28;113847;-65
2024/03/26 03:08:51;;;;;;;6.05;2.72;;;;;;;9.10;49.56;99515.63;4960575;28;114204;-68
2024/03/26 03:11:17;;;;;;;7.28;2.75;;;;;;;9.08;49.70;99506.97;4963910;28;124005;-64
2024/03/26 03:13:43;;;;;;;7.10;2.70;;;;;;;9.07;49.69;99505.25;4967828;28;122970;-63
2024/03/26 03:16:10;;;;;;;9.45;3.10;;;;;;;9.03;49.70;99493.16;4965016;28;114437;-62
2024/03/26 03:18:36;;;;;;;13.82;3.08;;;;;;;9.02;49.50;99496.75;4949399;28;112970;-63
2024/03/26 03:21:04;;;;;;;5.97;2.80;;;;;;;9.00;49.84;99496.00;4960634;28;123938;-64
2024/03/26 03:23:30;;;;;;;6.80;2.85;;;;;;;8.99;49.88;99481.09;4953240;28;123984;-63
2024/03/26 03:25:56;;;;;;;5.95;2.65;;;;;;;8.98;49.90;99474.09;4959809;28;115521;-63
2024/03/26 03:28:23;;;;;;;8.40;3.20;;;;;;;8.96;49.76;99473.34;4963480;28;115252;-63
2024/03/26 03:30:51;;;;;;;5.45;2.90;;;;;;;8.96;49.75;99468.06;4960715;28;123881;-63
2024/03/26 03:33:18;;;;;;;8.40;3.13;;;;;;;8.95;49.88;99466.41;4964236;28;124635;-63
2024/03/26 03:35:44;;;;;;;5.63;2.95;;;;;;;8.93;49.70;99449.78;4938580;28;113602;-63
2024/03/26 03:38:10;;;;;;;12.18;3.42;;;;;;;8.91;50.00;99451.66;4959578;28;114087;-63
2024/03/26 03:40:36;;;;;;;7.10;3.00;;;;;;;8.90;49.67;99445.53;4961794;28;124020;-62
2024/03/26 03:43:03;;;;;;;10.02;3.47;;;;;;;8.89;49.73;99438.56;4931485;28;122774;-63
2024/03/26 03:45:29;;;;;;;8.10;3.17;;;;;;;8.88;49.62;99436.00;4955693;28;114580;-62
2024/03/26 03:47:56;;;;;;;11.85;3.13;;;;;;;8.87;49.90;99434.31;4959999;28;114122;-63
2024/03/26 03:50:22;;;;;;;6.93;2.97;;;;;;;8.85;49.92;99431.75;4956903;28;124512;-63
2024/03/26 03:52:48;;;;;;;7.50;3.20;;;;;;;8.84;49.69;99423.94;4965024;28;124163;-63
2024/03/26 03:55:15;;;;;;;10.35;3.00;;;;;;;8.85;49.76;99425.63;4967668;28;113734;-63
2024/03/26 03:57:41;;;;;;;6.50;2.97;;;;;;;8.83;49.65;99427.53;4965697;28;114309;-63
2024/03/26 04:00:08;;;;;;;8.05;3.13;;;;;;;8.83;49.74;99427.53;4961660;28;124050;-63
2024/03/26 04:02:40;;;;;;;7.22;3.13;;;;;;;8.81;49.69;99418.84;4957325;28;123925;-63
2024/03/26 04:05:07;;;;;;;10.70;3.20;;;;;;;8.82;49.81;99425.84;4957096;28;114323;-63
2024/03/26 04:07:34;;;;;;;9.73;3.17;;;;;;;8.81;49.92;99421.47;4955936;28;114678;-63
2024/03/26 04:10:01;;;;;;;6.47;2.63;;;;;;;8.79;49.83;99421.56;4954486;28;124281;-62
2024/03/26 04:12:27;;;;;;;11.40;3.25;;;;;;;8.77;49.66;99413.75;4962963;28;124260;-62
2024/03/26 04:14:54;;;;;;;13.00;3.05;;;;;;;8.77;49.88;99408.47;4932901;28;114235;-63
2024/03/26 04:17:20;;;;;;;11.40;3.47;;;;;;;8.77;49.89;99408.47;4941984;28;114628;-63
2024/03/26 04:19:46;;;;;;;9.00;3.05;;;;;;;8.75;50.00;99399.78;4960257;28;124335;-63
2024/03/26 04:22:12;;;;;;;10.43;3.20;;;;;;;8.75;49.83;99396.31;4961775;28;124051;-63
2024/03/26 04:24:38;;;;;;;8.27;3.13;;;;;;;8.73;49.55;99391.13;4954919;28;114298;-64
2024/03/26 04:27:05;;;;;;;8.63;2.92;;;;;;;8.71;50.02;99398.28;4953043;28;114785;-63
2024/03/26 04:29:31;;;;;;;8.27;3.35;;;;;;;8.70;49.58;99401.00;4963612;28;124220;-63
2024/03/26 04:31:57;;;;;;;9.30;3.30;;;;;;;8.66;49.85;99392.41;4965579;28;123984;-62
2024/03/26 04:34:23;;;;;;;7.60;3.08;;;;;;;8.62;49.77;99393.56;4943464;28;113253;-62
2024/03/26 04:36:59;;;;;;;8.73;3.15;;;;;;;8.57;49.73;99391.22;4961641;28;114604;-63
2024/03/26 04:39:25;;;;;;;8.57;3.22;;;;;;;8.55;49.70;99397.50;4953945;28;123946;-62
2024/03/26 04:41:52;;;;;;;8.48;3.50;;;;;;;8.52;50.09;99387.16;4967007;28;123957;-62
2024/03/26 04:44:18;;;;;;;8.70;2.97;;;;;;;8.49;49.84;99382.88;4966398;28;114299;-62
2024/03/26 04:46:44;;;;;;;6.20;3.17;;;;;;;8.47;49.78;99378.66;4955582;28;114275;-62
2024/03/26 04:49:11;;;;;;;4.97;3.03;;;;;;;8.45;49.77;99376.09;4957357;28;124144;-67
2024/03/26 04:51:37;;;;;;;8.60;2.95;;;;;;;8.44;50.00;99373.53;4954126;28;124315;-62
2024/03/26 04:54:04;;;;;;;9.43;3.20;;;;;;;8.39;50.02;99369.38;4958151;28;114187;-63
2024/03/26 04:56:31;;;;;;;8.48;3.05;;;;;;;8.37;49.77;99373.88;4942752;28;113071;-63
2024/03/26 04:58:57;;;;;;;3.75;1.90;;;;;;;8.35;49.95;99364.38;4957100;28;124085;-63
2024/03/26 05:01:23;;;;;;;5.45;2.00;;;;;;;8.33;50.07;99367.09;4964196;28;123950;-62
2024/03/26 05:03:49;;;;;;;7.30;2.05;;;;;;;8.31;49.94;99363.72;4959436;28;115208;-62
2024/03/26 05:06:16;;;;;;;4.70;2.20;;;;;;;8.28;49.86;99363.88;4967252;28;115039;-62
2024/03/26 05:08:42;;;;;;;7.43;2.28;;;;;;;8.25;50.03;99364.09;4959045;28;124158;-62
2024/03/26 05:11:09;;;;;;;9.02;2.05;;;;;;;8.24;49.94;99362.38;4960798;28;124151;-63
2024/03/26 05:13:35;;;;;;;6.30;2.20;;;;;;;8.23;50.00;99365.97;4954270;28;114160;-62
2024/03/26 05:16:02;;;;;;;5.45;1.98;;;;;;;8.23;50.01;99368.59;4957877;28;114289;-62
2024/03/26 05:18:28;;;;;;;5.00;2.10;;;;;;;8.22;50.21;99364.25;4953003;28;124922;-62
2024/03/26 05:20:54;;;;;;;6.47;2.40;;;;;;;8.22;50.05;99360.78;4952861;28;123866;-62
2024/03/26 05:23:20;;;;;;;5.57;2.08;;;;;;;8.20;49.83;99360.88;4944579;28;112410;-62
2024/03/26 05:25:46;;;;;;;6.20;2.15;;;;;;;8.20;50.19;99360.88;4948044;28;114371;-62
2024/03/26 05:28:13;;;;;;;4.93;2.13;;;;;;;8.18;49.77;99358.31;4945593;28;123085;-62
2024/03/26 05:30:40;;;;;;;5.88;1.92;;;;;;;8.17;49.79;99358.41;4957797;28;123414;-62
2024/03/26 05:33:06;;;;;;;8.68;2.15;;;;;;;8.15;50.07;99362.91;4964724;28;114261;-62
2024/03/26 05:35:32;;;;;;;5.22;2.10;;;;;;;8.15;50.03;99362.91;4936790;28;112987;-70
2024/03/26 05:38:00;;;;;;;5.93;1.77;;;;;;;8.14;50.15;99366.50;4962515;28;124273;-63
2024/03/26 05:40:30;;;;;;;4.28;1.98;;;;;;;8.13;50.01;99349.81;4947957;28;123007;-62
2024/03/26 05:42:56;;;;;;;4.95;2.20;;;;;;;8.13;49.90;99354.25;4948988;28;113238;-62
2024/03/26 05:45:23;;;;;;;4.38;2.10;;;;;;;8.12;50.10;99357.84;4964596;28;114011;-63
2024/03/26 05:47:49;;;;;;;8.30;2.33;;;;;;;8.11;49.80;99361.41;4943516;28;123849;-62
2024/03/26 05:50:15;;;;;;;7.05;1.95;;;;;;;8.11;50.06;99356.13;4962828;28;123796;-62
2024/03/26 05:52:42;;;;;;;3.90;1.73;;;;;;;8.11;49.81;99350.84;4938301;28;115273;-62
2024/03/26 05:55:08;;;;;;;5.90;2.00;;;;;;;8.12;50.20;99352.56;4949385;28;112937;-62
2024/03/26 05:57:34;;;;;;;6.10;2.20;;;;;;;8.13;50.02;99348.97;4965611;28;124190;-62
2024/03/26 06:00:01;;;;;;;3.28;2.00;;;;;;;8.13;50.16;99343.69;4956734;28;123962;-62
2024/03/26 06:02:30;;;;;;;4.63;2.30;;;;;;;8.14;50.39;99350.69;4966298;28;115329;-62
2024/03/26 06:04:56;;;;;;;3.90;2.00;;;;;;;8.15;50.24;99342.66;4960874;28;113983;-62
2024/03/26 06:07:22;;;;;;;4.32;1.98;;;;;;;8.16;49.98;99338.25;4960230;28;123978;-65
2024/03/26 06:09:48;;;;;;;6.00;2.30;;;;;;;8.16;50.21;99332.97;4964009;28;124383;-62
2024/03/26 06:12:15;;;;;;;7.05;2.38;;;;;;;8.16;50.23;99325.06;4964685;28;114610;-62
2024/03/26 06:14:41;;;;;;;5.97;1.90;;;;;;;8.18;50.23;99337.22;4960292;28;113979;-63
2024/03/26 06:17:07;;;;;;;3.78;2.05;;;;;;;8.18;50.11;99324.03;4965380;28;123928;-63
2024/03/26 06:19:33;;;;;;;6.63;1.98;;;;;;;8.20;50.14;99323.94;4962620;28;123865;-63
2024/03/26 06:22:01;;;;;;;7.07;1.92;;;;;;;8.22;50.49;99321.22;4967585;28;114245;-63
2024/03/26 06:24:27;;;;;;;5.75;2.30;;;;;;;8.25;50.12;99326.28;4958004;28;113910;-63
2024/03/26 06:26:53;;;;;;;6.88;2.45;;;;;;;8.27;50.38;99327.91;4960657;28;123956;-64
2024/03/26 06:29:19;;;;;;;5.30;1.90;;;;;;;8.31;50.54;99337.34;4964701;28;123878;-65
2024/03/26 06:31:46;;;;;;;6.18;2.15;;;;;;;8.34;50.57;99331.88;4958966;28;114127;-65
2024/03/26 06:34:12;;;;;;;4.80;2.13;;;;;;;8.39;50.36;99328.97;4940967;28;113154;-65
2024/03/26 06:36:38;;;;;;;7.57;2.00;;;;;;;8.46;50.67;99334.75;4959033;28;124266;-64
2024/03/26 06:39:04;;;;;;;5.55;1.92;;;;;;;8.50;50.71;99336.25;4944427;28;123873;-67
2024/03/26 06:41:31;;;;;;;5.97;2.40;;;;;;;8.55;50.50;99334.16;4958043;28;115333;-64
2024/03/26 06:43:57;;;;;;;5.05;2.25;;;;;;;8.61;50.49;99332.94;4945433;28;114964;-65
2024/03/26 06:46:25;;;;;;;4.15;1.83;;;;;;;8.66;50.58;99326.44;4964405;28;124334;-64
2024/03/26 06:48:52;;;;;;;4.45;2.00;;;;;;;8.71;50.52;99327.00;4964383;28;123852;-64
2024/03/26 06:51:19;;;;;;;10.00;2.20;;;;;;;8.79;50.27;99320.41;4961069;28;113951;-64
2024/03/26 06:53:45;;;;;;;5.28;2.30;;;;;;;8.85;50.57;99331.44;4962334;28;113791;-64
2024/03/26 06:56:11;;;;;;;3.95;2.20;;;;;;;8.93;50.61;99323.06;4957188;28;123027;-64
2024/03/26 06:58:39;;;;;;;5.72;2.30;;;;;;;9.00;50.51;99319.06;4965124;28;124230;-64
2024/03/26 07:01:07;;;;;;;4.45;2.40;;;;;;;9.10;50.70;99325.47;4961655;28;114457;-63
2024/03/26 07:03:33;;;;;;;3.78;2.00;;;;;;;9.20;50.81;99320.44;4963675;28;114032;-64
2024/03/26 07:05:59;;;;;;;7.93;2.40;;;;;;;9.31;51.02;99333.81;4971390;28;124556;-64
2024/03/26 07:08:26;;;;;;;6.15;1.92;;;;;;;9.43;51.00;99326.88;4955864;28;123875;-64
2024/03/26 07:10:52;;;;;;;5.10;2.33;;;;;;;9.53;50.83;99332.41;4956321;28;115059;-64
2024/03/26 07:13:19;;;;;;;4.90;2.22;;;;;;;9.63;50.69;99332.69;4962408;28;113227;-64
2024/03/26 07:15:49;;;;;;;3.92;2.10;;;;;;;9.72;50.77;99329.44;4955491;28;124522;-64
2024/03/26 07:18:15;;;;;;;6.28;2.05;;;;;;;9.82;50.83;99317.28;4937785;28;122849;-64
2024/03/26 07:20:41;;;;;;;4.75;2.03;;;;;;;9.90;50.77;99320.25;4959195;28;114226;-64
2024/03/26 07:23:07;;;;;;;2.78;1.92;;;;;;;10.00;50.44;99319.66;4963914;28;114606;-64
2024/03/26 07:25:34;;;;;;;5.55;2.05;;;;;;;10.06;50.55;99308.69;4962275;28;124073;-64
2024/03/26 07:28:00;;;;;;;5.72;2.03;;;;;;;10.13;50.55;99304.66;4966105;28;123820;-62
2024/03/26 07:30:27;;;;;;;2.90;2.10;;;;;;;10.20;50.40;99305.94;4964146;28;115843;-62
2024/03/26 07:32:54;;;;;;;6.50;2.20;;;;;;;10.28;50.37;99303.63;4961185;28;114992;-63
2024/03/26 07:35:20;;;;;;;4.13;2.10;;;;;;;10.33;50.57;99296.22;4960232;28;124822;-62
2024/03/26 07:37:46;;;;;;;4.05;1.75;;;;;;;10.40;50.22;99286.06;4959003;28;123936;-62
2024/03/26 07:40:16;;;;;;;5.35;1.92;;;;;;;10.45;50.34;99288.38;4957111;28;114230;-62
2024/03/26 07:42:43;;;;;;;7.10;2.03;;;;;;;10.50;50.57;99281.81;4964727;28;114058;-62
2024/03/26 07:45:09;;;;;;;4.45;2.08;;;;;;;10.56;50.30;99280.53;4960001;28;124149;-63
2024/03/26 07:47:37;;;;;;;4.47;2.03;;;;;;;10.61;50.25;99283.72;4960445;28;123983;-62
2024/03/26 07:50:03;;;;;;;3.78;1.80;;;;;;;10.68;50.38;99281.47;4964372;28;114292;-63
2024/03/26 07:52:30;;;;;;;4.38;2.30;;;;;;;10.73;50.34;99282.00;4964472;28;113980;-63
2024/03/26 07:54:56;;;;;;;4.60;2.20;;;;;;;10.80;50.28;99287.72;4951218;28;123245;-62
2024/03/26 07:57:22;;;;;;;3.67;2.10;;;;;;;10.85;50.26;99280.28;4963900;28;123767;-62
2024/03/26 07:59:48;;;;;;;4.75;2.10;;;;;;;10.91;50.12;99274.56;4965109;28;114316;-62
2024/03/26 08:02:18;;;;;;;4.60;2.65;;;;;;;10.98;50.02;99274.94;4960483;28;113766;-62
2024/03/26 08:04:46;;;;;;;6.32;2.25;;;;;;;11.03;50.04;99273.66;4966243;28;123906;-62
2024/03/26 08:07:14;;;;;;;4.05;2.10;;;;;;;11.10;50.00;99274.91;4959163;28;124575;-62
2024/03/26 08:09:40;;;;;;;3.75;1.67;;;;;;;11.17;49.99;99269.16;4965911;28;115087;-62
2024/03/26 08:12:07;;;;;;;3.10;1.98;;;;;;;11.23;49.86;99258.13;4957695;28;114043;-62
2024/03/26 08:14:33;;;;;;;4.47;2.00;;;;;;;11.31;49.88;99261.06;4962552;28;124858;-62
2024/03/26 08:16:59;;;;;;;3.65;2.00;;;;;;;11.37;49.84;99260.59;4952800;28;124514;-63
2024/03/26 08:19:26;;;;;;;5.28;1.92;;;;;;;11.44;49.82;99261.84;4971540;28;115250;-62
2024/03/26 08:21:52;;;;;;;4.10;2.13;;;;;;;11.50;49.79;99263.19;4955108;28;113943;-63
2024/03/26 08:24:18;;;;;;;6.13;2.55;;;;;;;11.57;49.72;99256.47;4962425;28;124648;-62
2024/03/26 08:26:44;;;;;;;6.10;2.72;;;;;;;11.65;49.60;99247.94;4957514;28;123962;-62
2024/03/26 08:29:11;;;;;;;9.05;3.00;;;;;;;11.72;49.67;99243.88;4959401;28;115050;-63
2024/03/26 08:31:38;;;;;;;6.82;3.53;;;;;;;11.79;49.71;99245.13;4955963;28;114266;-62
2024/03/26 08:34:04;;;;;;;8.25;3.50;;;;;;;11.86;49.75;99238.34;4951328;28;124144;-63
2024/03/26 08:36:30;;;;;;;7.15;3.50;;;;;;;11.93;49.44;99235.28;4962294;28;124493;-62
2024/03/26 08:38:56;;;;;;;7.95;3.85;;;;;;;11.99;49.51;99229.50;4964453;28;114540;-62
2024/03/26 08:41:23;;;;;;;10.73;3.90;;;;;;;12.05;49.50;99223.72;4964413;28;114029;-62
2024/03/26 08:43:50;;;;;;;11.75;4.55;;;;;;;12.12;49.41;99234.72;4958385;28;97313;-62
2024/03/26 08:46:17;;;;;;;13.77;5.35;;;;;;;12.17;49.34;99228.09;4967266;28;125191;-63
2024/03/26 08:48:43;;;;;;;14.90;5.18;;;;;;;12.20;49.50;99217.22;4966189;28;114181;-62
2024/03/26 08:51:10;;;;;;;14.35;5.57;;;;;;;12.23;49.23;99214.31;4962556;28;113952;-62
2024/03/26 08:53:36;;;;;;;13.95;5.68;;;;;;;12.27;49.30;99213.13;4957771;28;124760;-62
2024/03/26 08:56:03;;;;;;;12.68;5.93;;;;;;;12.31;49.27;99213.72;4959757;28;124090;-63
2024/03/26 08:58:29;;;;;;;15.38;6.15;;;;;;;12.34;49.17;99208.19;4956611;28;113631;-62
2024/03/26 09:00:55;;;;;;;15.00;6.25;;;;;;;12.38;49.09;99217.59;4965649;28;114090;-63
2024/03/26 09:03:22;;;;;;;18.48;6.20;;;;;;;12.42;49.03;99211.06;4959115;28;125142;-62
2024/03/26 09:05:48;;;;;;;14.15;6.38;;;;;;;12.46;49.02;99216.97;4938187;28;123849;-62
2024/03/26 09:08:15;;;;;;;20.60;7.22;;;;;;;12.51;49.00;99214.81;4962006;28;115145;-63
2024/03/26 09:10:41;;;;;;;12.57;5.80;;;;;;;12.56;48.87;99212.63;4966756;28;114940;-62
2024/03/26 09:13:07;;;;;;;15.10;5.78;;;;;;;12.60;48.90;99216.75;4966856;28;125107;-62
2024/03/26 09:15:33;;;;;;;14.55;5.38;;;;;;;12.63;48.98;99213.81;4960880;28;123609;-63
2024/03/26 09:18:00;;;;;;;7.97;4.47;;;;;;;12.70;48.88;99211.53;4958535;28;115182;-63
2024/03/26 09:20:26;;;;;;;8.73;4.05;;;;;;;12.77;49.07;99212.75;4947028;28;114099;-63
2024/03/26 09:22:52;;;;;;;8.80;4.60;;;;;;;12.83;48.94;99208.75;4952103;28;123567;-63
2024/03/26 09:25:18;;;;;;;6.78;3.85;;;;;;;12.92;49.06;99207.13;4961131;28;124246;-63
2024/03/26 09:27:45;;;;;;;12.52;4.90;;;;;;;12.96;48.82;99198.81;4952352;28;114702;-63
2024/03/26 09:30:13;;;;;;;10.35;4.82;;;;;;;13.04;48.80;99196.34;4963850;28;114055;-63
2024/03/26 09:32:39;;;;;;;11.45;4.75;;;;;;;13.09;48.80;99200.44;4961307;28;123948;-63
2024/03/26 09:35:08;;;;;;;8.85;4.35;;;;;;;13.14;48.64;99195.59;4963554;28;125134;-62
2024/03/26 09:37:35;;;;;;;8.70;3.85;;;;;;;13.17;48.56;99190.88;4957783;28;113992;-63
2024/03/26 09:40:02;;;;;;;5.80;3.22;;;;;;;13.20;48.52;99195.09;4967105;28;113984;-62
2024/03/26 09:42:29;;;;;;;6.72;2.80;;;;;;;13.19;48.34;99178.31;4958170;28;124615;-64
2024/03/26 09:44:55;;;;;;;4.47;2.50;;;;;;;13.20;48.16;99180.00;4966992;28;125163;-64
2024/03/26 09:47:24;;;;;;;5.43;2.60;;;;;;;13.18;48.20;99171.28;4960617;28;114436;-64
2024/03/26 09:49:50;;;;;;;5.63;2.17;;;;;;;13.16;48.23;99173.22;4956626;28;113848;-63
2024/03/26 09:52:16;;;;;;;3.40;1.88;;;;;;;13.17;48.37;99174.94;4956169;28;124296;-63
2024/03/26 09:54:44;;;;;;;3.67;1.85;;;;;;;13.16;48.13;99167.06;4963841;28;124037;-63
2024/03/26 09:57:10;;;;;;;3.17;1.60;;;;;;;13.15;48.12;99166.25;4951183;28;114374;-62
2024/03/26 09:59:37;;;;;;;4.07;2.08;;;;;;;13.17;48.06;99155.50;4965084;28;114812;-63
2024/03/26 10:02:07;;;;;;;3.85;1.63;;;;;;;13.19;48.31;99158.88;4963166;28;124674;-64
2024/03/26 10:04:33;;;;;;;5.65;2.13;;;;;;;13.24;48.28;99148.66;4965570;28;123924;-64
2024/03/26 10:06:59;;;;;;;5.05;2.00;;;;;;;13.30;48.35;99148.22;4969361;28;114485;-64
2024/03/26 10:09:27;;;;;;;3.83;1.80;;;;;;;13.35;48.32;99140.66;4963742;28;113796;-64
2024/03/26 10:11:53;;;;;;;5.03;1.85;;;;;;;13.42;48.36;99146.31;4954469;28;124000;-64
2024/03/26 10:14:20;;;;;;;3.88;1.98;;;;;;;13.47;48.05;99145.94;4958296;28;124575;-64
2024/03/26 10:16:46;;;;;;;3.63;1.80;;;;;;;13.51;48.30;99150.03;4954186;28;113320;-64
2024/03/26 10:19:13;;;;;;;2.97;1.77;;;;;;;13.55;48.06;99138.16;4966556;28;115370;-64
2024/03/26 10:21:48;;;;;;;4.55;2.58;;;;;;;13.59;48.12;99152.88;4964273;28;124806;-64
2024/03/26 10:24:14;;;;;;;3.20;1.88;;;;;;;13.61;47.92;99143.78;4956449;28;124449;-64
2024/03/26 10:26:41;;;;;;;5.47;2.13;;;;;;;13.66;47.97;99154.06;4958464;28;114063;-64
2024/03/26 10:29:07;;;;;;;3.53;1.77;;;;;;;13.68;47.94;99146.78;4967254;28;114438;-64
2024/03/26 10:31:38;;;;;;;4.63;1.95;;;;;;;13.72;47.86;99142.88;4962204;28;124953;-64
2024/03/26 10:34:05;;;;;;;4.35;1.75;;;;;;;13.77;47.88;99148.66;4952776;28;123962;-63
2024/03/26 10:36:31;;;;;;;5.50;1.90;;;;;;;13.81;47.93;99141.25;4950104;28;114339;-62
2024/03/26 10:38:58;;;;;;;3.95;2.00;;;;;;;13.86;47.86;99138.19;4943748;28;112896;-63
2024/03/26 10:41:34;;;;;;;4.22;2.00;;;;;;;13.91;47.89;99141.31;4966823;28;124168;-63
2024/03/26 10:44:01;;;;;;;6.32;2.33;;;;;;;13.95;47.66;99132.06;4961259;28;124563;-62
2024/03/26 10:46:30;;;;;;;3.92;2.00;;;;;;;13.98;47.68;99137.13;4954623;28;115218;-62
2024/03/26 10:49:05;;;;;;;3.53;2.00;;;;;;;14.01;47.80;99126.22;4957861;28;114860;-63
2024/03/26 10:51:33;;;;;;;5.28;2.58;;;;;;;14.04;47.83;99125.94;4937902;28;124122;-62
2024/03/26 10:54:00;;;;;;;4.22;2.05;;;;;;;14.10;47.75;99125.41;4958178;28;124391;-62
2024/03/26 10:56:26;;;;;;;3.35;1.80;;;;;;;14.13;47.66;99119.00;4956687;28;114228;-63
2024/03/26 10:58:56;;;;;;;4.85;2.10;;;;;;;14.21;47.84;99117.31;4960859;28;114426;-63
2024/03/26 11:01:24;;;;;;;5.65;2.30;;;;;;;14.32;47.66;99112.88;4963036;28;123998;-63
2024/03/26 11:03:52;;;;;;;3.47;2.08;;;;;;;14.41;47.68;99112.06;4957531;28;124069;-63
2024/03/26 11:06:19;;;;;;;5.50;2.17;;;;;;;14.46;47.73;99104.50;4962683;28;114871;-63
2024/03/26 11:08:46;;;;;;;4.10;2.00;;;;;;;14.52;47.58;99095.97;4964914;28;114119;-64
2024/03/26 11:11:19;;;;;;;5.63;2.08;;;;;;;14.60;47.69;99090.81;4962190;28;124180;-64
2024/03/26 11:13:45;;;;;;;5.22;2.17;;;;;;;14.69;47.66;99090.97;4963654;28;123856;-63
2024/03/26 11:16:39;;;;;;;3.63;1.95;;;;;;;14.71;47.22;99086.34;4962581;28;113669;-64
2024/03/26 11:19:28;;;;;;;6.25;2.13;;;;;;;14.72;47.40;99072.88;4956428;28;114059;-64
2024/03/26 11:21:55;;;;;;;5.15;2.30;;;;;;;14.75;47.33;99082.44;4957058;28;125327;-64
2024/03/26 11:24:40;;;;;;;6.13;2.30;;;;;;;14.78;47.52;99066.16;4962160;28;124221;-64
2024/03/26 11:27:07;;;;;;;;;;;;;;;14.83;47.83;99066.56;4948428;28;114343;-64